Time;durP1;ratioP1;P1;durP2;ratioP2;P2;SDS_P1;SDS_P2;PMS_P1;PMS_P2;Temp;Humidity;BMP_temperature;BMP_pressure;BME280_temperature;BME280_humidity;BME280_pressure;Samples;Min_cycle;Max_cycle;Signal;HPM_P1;HPM_P2
2021/08/13 00:02:01;;;;;;;5.25;4.00;;;;;;;;;;5008147;28;20038;-74
2021/08/13 00:04:28;;;;;;;8.80;4.05;;;;;;;;;;5013453;28;20021;-72
2021/08/13 00:06:54;;;;;;;9.70;4.22;;;;;;;;;;5014659;28;20034;-72
2021/08/13 00:09:22;;;;;;;7.18;3.47;;;;;;;;;;5015229;28;20110;-73
2021/08/13 00:11:48;;;;;;;5.47;3.70;;;;;;;;;;5012663;28;20057;-71
2021/08/13 00:14:14;;;;;;;5.30;3.70;;;;;;;;;;5013930;28;20046;-71
2021/08/13 00:16:40;;;;;;;8.07;4.20;;;;;;;;;;5012343;28;20026;-71
2021/08/13 00:19:07;;;;;;;5.53;3.95;;;;;;;;;;5014029;28;20385;-74
2021/08/13 00:21:33;;;;;;;7.65;3.95;;;;;;;;;;5013887;28;20048;-74
2021/08/13 00:23:59;;;;;;;6.07;3.88;;;;;;;;;;5012801;28;20113;-70
2021/08/13 00:26:27;;;;;;;6.55;3.75;;;;;;;;;;5014116;28;20084;-71
2021/08/13 00:29:03;;;;;;;6.70;4.00;;;;;;;;;;5015347;28;20422;-71
2021/08/13 00:31:29;;;;;;;5.00;3.58;;;;;;;;;;4996274;28;20041;-71
2021/08/13 00:33:57;;;;;;;6.57;3.78;;;;;;;;;;5013969;28;20029;-72
2021/08/13 00:36:23;;;;;;;6.07;3.70;;;;;;;;;;5017645;28;20026;-71
2021/08/13 00:38:49;;;;;;;5.10;3.67;;;;;;;;;;5014328;28;20105;-72
2021/08/13 00:41:15;;;;;;;7.13;3.90;;;;;;;;;;5014199;28;20383;-71
2021/08/13 00:43:41;;;;;;;6.05;3.67;;;;;;;;;;5008693;28;20022;-75
2021/08/13 00:46:07;;;;;;;7.57;3.78;;;;;;;;;;5014282;28;20116;-71
2021/08/13 00:48:33;;;;;;;8.05;3.80;;;;;;;;;;5014651;28;20084;-71
2021/08/13 00:50:59;;;;;;;6.18;3.70;;;;;;;;;;5011463;28;20038;-71
2021/08/13 00:53:26;;;;;;;7.68;3.72;;;;;;;;;;5009903;28;20097;-70
2021/08/13 00:55:52;;;;;;;7.68;3.90;;;;;;;;;;5013701;28;20395;-74
2021/08/13 00:58:18;;;;;;;6.38;3.78;;;;;;;;;;5013682;28;20479;-72
2021/08/13 01:00:54;;;;;;;9.45;3.80;;;;;;;;;;5020343;28;20442;-71
2021/08/13 01:03:21;;;;;;;5.55;3.67;;;;;;;;;;4995664;28;20030;-70
2021/08/13 01:05:47;;;;;;;7.70;4.03;;;;;;;;;;5008583;28;20049;-70
2021/08/13 01:08:13;;;;;;;7.75;3.85;;;;;;;;;;5014063;28;20448;-73
2021/08/13 01:10:46;;;;;;;5.22;3.60;;;;;;;;;;5002923;28;20058;-72
2021/08/13 01:13:13;;;;;;;5.43;3.60;;;;;;;;;;5011932;28;20031;-71
2021/08/13 01:16:00;;;;;;;7.05;3.90;;;;;;;;;;5011719;28;20502;-70
2021/08/13 01:18:52;;;;;;;6.60;3.45;;;;;;;;;;5013427;28;20087;-71
2021/08/13 01:21:30;;;;;;;8.70;3.78;;;;;;;;;;4955455;28;20058;-70
2021/08/13 01:24:02;;;;;;;8.20;3.60;;;;;;;;;;4953463;28;20119;-71
2021/08/13 01:26:33;;;;;;;5.93;3.83;;;;;;;;;;4952377;28;20533;-72
2021/08/13 01:29:05;;;;;;;5.20;3.45;;;;;;;;;;4952191;28;20043;-73
2021/08/13 01:31:47;;;;;;;7.28;3.58;;;;;;;;;;4954278;28;20067;-74
2021/08/13 01:34:15;;;;;;;4.97;3.53;;;;;;;;;;4949311;28;20035;-74
2021/08/13 01:36:42;;;;;;;6.07;3.92;;;;;;;;;;4949364;28;20050;-72
2021/08/13 01:39:08;;;;;;;5.28;3.30;;;;;;;;;;4953336;28;20019;-74
2021/08/13 01:41:38;;;;;;;5.43;3.72;;;;;;;;;;4952926;28;20070;-72
2021/08/13 01:44:20;;;;;;;7.57;3.55;;;;;;;;;;4953115;28;20425;-73
2021/08/13 01:47:18;;;;;;;6.70;3.53;;;;;;;;;;4944231;28;20047;-72
2021/08/13 01:49:44;;;;;;;5.15;3.53;;;;;;;;;;4877070;29;20093;-71
2021/08/13 01:52:11;;;;;;;6.90;3.45;;;;;;;;;;4911689;29;20047;-71
2021/08/13 01:54:38;;;;;;;6.30;3.60;;;;;;;;;;4933261;29;20147;-75
2021/08/13 01:57:04;;;;;;;7.18;3.88;;;;;;;;;;4936629;29;20643;-72
2021/08/13 01:59:33;;;;;;;5.95;4.15;;;;;;;;;;4937445;29;20020;-72
2021/08/13 02:02:00;;;;;;;4.63;3.60;;;;;;;;;;4922917;29;20176;-71
2021/08/13 02:04:26;;;;;;;5.72;3.30;;;;;;;;;;4933489;29;20545;-74
2021/08/13 02:06:53;;;;;;;8.65;3.50;;;;;;;;;;4937825;29;20043;-74
2021/08/13 02:09:20;;;;;;;6.35;4.03;;;;;;;;;;4932563;29;20090;-74
2021/08/13 02:11:53;;;;;;;4.22;3.38;;;;;;;;;;4931845;29;20075;-75
2021/08/13 02:14:44;;;;;;;4.68;3.40;;;;;;;;;;4932870;29;20040;-75
2021/08/13 02:17:17;;;;;;;6.30;3.88;;;;;;;;;;4932611;29;20047;-72
2021/08/13 02:19:45;;;;;;;7.33;3.40;;;;;;;;;;4931952;29;20083;-71
2021/08/13 02:22:17;;;;;;;7.43;3.85;;;;;;;;;;4932821;29;20043;-75
2021/08/13 02:24:43;;;;;;;4.55;3.47;;;;;;;;;;4924184;29;20040;-73
2021/08/13 02:27:10;;;;;;;4.95;3.58;;;;;;;;;;4977253;28;20050;-76
2021/08/13 02:29:36;;;;;;;5.38;3.70;;;;;;;;;;4992458;28;20456;-72
2021/08/13 02:32:02;;;;;;;4.82;3.50;;;;;;;;;;4991905;28;20395;-75
2021/08/13 02:34:31;;;;;;;7.20;3.40;;;;;;;;;;4993001;28;20476;-75
2021/08/13 02:37:02;;;;;;;5.35;3.42;;;;;;;;;;4992834;28;20162;-76
2021/08/13 02:39:28;;;;;;;5.13;3.47;;;;;;;;;;4990464;28;20106;-73
2021/08/13 02:41:57;;;;;;;5.97;3.38;;;;;;;;;;4986670;28;20104;-71
2021/08/13 02:44:24;;;;;;;6.80;3.75;;;;;;;;;;4972990;28;20101;-71
2021/08/13 02:46:55;;;;;;;5.15;3.50;;;;;;;;;;4990979;28;20030;-72
2021/08/13 02:49:21;;;;;;;4.63;3.50;;;;;;;;;;4984634;28;20027;-72
2021/08/13 02:51:48;;;;;;;4.72;3.45;;;;;;;;;;4983218;28;20126;-75
2021/08/13 02:54:25;;;;;;;6.65;3.70;;;;;;;;;;5000559;28;20056;-76
2021/08/13 02:56:56;;;;;;;5.78;3.63;;;;;;;;;;5013751;28;20026;-74
2021/08/13 02:59:23;;;;;;;5.60;3.50;;;;;;;;;;5006101;28;20034;-71
2021/08/13 03:01:52;;;;;;;5.85;3.75;;;;;;;;;;5010625;28;20079;-71
2021/08/13 03:04:18;;;;;;;5.40;3.88;;;;;;;;;;5005284;28;20034;-74
2021/08/13 03:06:53;;;;;;;4.93;3.67;;;;;;;;;;5009679;28;20034;-71
2021/08/13 03:09:20;;;;;;;5.45;3.50;;;;;;;;;;5009450;28;20033;-73
2021/08/13 03:11:47;;;;;;;7.85;3.78;;;;;;;;;;5010707;28;20029;-75
2021/08/13 03:14:13;;;;;;;5.97;3.85;;;;;;;;;;5006671;28;20030;-73
2021/08/13 03:16:41;;;;;;;5.65;3.92;;;;;;;;;;5010133;28;20034;-72
2021/08/13 03:19:16;;;;;;;5.68;3.90;;;;;;;;;;5010323;28;20502;-75
2021/08/13 03:21:43;;;;;;;4.75;3.15;;;;;;;;;;5008012;28;20116;-70
2021/08/13 03:24:10;;;;;;;6.45;3.83;;;;;;;;;;5009745;28;20562;-71
2021/08/13 03:26:37;;;;;;;6.28;3.72;;;;;;;;;;5010667;28;20041;-76
2021/08/13 03:29:03;;;;;;;4.30;3.42;;;;;;;;;;5011378;28;20029;-70
2021/08/13 03:31:36;;;;;;;5.32;3.60;;;;;;;;;;5011173;28;20037;-74
2021/08/13 03:34:03;;;;;;;5.10;3.70;;;;;;;;;;5010219;28;20156;-72
2021/08/13 03:36:29;;;;;;;5.85;3.20;;;;;;;;;;5011307;28;20029;-74
2021/08/13 03:38:59;;;;;;;5.65;3.67;;;;;;;;;;5008250;28;20716;-73
2021/08/13 03:41:25;;;;;;;7.32;3.67;;;;;;;;;;5010579;28;20026;-71
2021/08/13 03:43:51;;;;;;;7.78;4.15;;;;;;;;;;5009374;28;20755;-73
2021/08/13 03:46:25;;;;;;;10.57;3.95;;;;;;;;;;5009634;28;20095;-74
2021/08/13 03:48:51;;;;;;;7.68;4.00;;;;;;;;;;5007358;28;20484;-71
2021/08/13 03:51:17;;;;;;;8.10;3.95;;;;;;;;;;5009914;28;20499;-71
2021/08/13 03:53:43;;;;;;;6.47;3.95;;;;;;;;;;5004915;28;20042;-70
2021/08/13 03:56:09;;;;;;;7.95;3.85;;;;;;;;;;5016027;28;20381;-71
2021/08/13 03:58:36;;;;;;;7.68;3.85;;;;;;;;;;5004741;28;20119;-73
2021/08/13 04:01:02;;;;;;;5.82;3.78;;;;;;;;;;5000140;28;20030;-71
2021/08/13 04:03:34;;;;;;;6.35;3.83;;;;;;;;;;5010991;28;20022;-74
2021/08/13 04:06:01;;;;;;;10.55;3.90;;;;;;;;;;5012756;28;20065;-70
2021/08/13 04:08:27;;;;;;;7.82;4.43;;;;;;;;;;5012020;28;20025;-77
2021/08/13 04:10:53;;;;;;;8.90;4.20;;;;;;;;;;4991793;28;20033;-76
2021/08/13 04:13:19;;;;;;;7.97;3.78;;;;;;;;;;5009923;28;20060;-71
2021/08/13 04:15:45;;;;;;;6.95;4.15;;;;;;;;;;5008795;28;20073;-70
2021/08/13 04:21:53;;;;;;;;;;;;;;;;;;;;;
2021/08/13 04:24:19;;;;;;;9.68;4.45;;;;;;;;;;5006058;28;20025;-76
2021/08/13 04:29:34;;;;;;;9.57;4.00;;;;;;;;;;5006935;28;20092;-68
2021/08/13 04:32:00;;;;;;;8.43;4.57;;;;;;;;;;5017797;28;20073;-85
2021/08/13 04:34:26;;;;;;;19.02;5.25;;;;;;;;;;5010415;28;20029;-79
2021/08/13 04:36:52;;;;;;;13.55;4.82;;;;;;;;;;5031104;28;20064;-68
2021/08/13 04:39:21;;;;;;;13.73;4.60;;;;;;;;;;5015656;28;20029;-69
2021/08/13 04:41:47;;;;;;;8.23;4.50;;;;;;;;;;5011367;28;20037;-65
2021/08/13 04:44:13;;;;;;;7.55;4.13;;;;;;;;;;5015522;28;20052;-67
2021/08/13 04:46:39;;;;;;;10.13;4.47;;;;;;;;;;5013802;28;20100;-68
2021/08/13 04:49:05;;;;;;;10.18;4.20;;;;;;;;;;5012952;28;20025;-68
2021/08/13 04:51:31;;;;;;;7.68;4.30;;;;;;;;;;5014762;28;20021;-68
2021/08/13 04:53:57;;;;;;;12.82;4.70;;;;;;;;;;5010953;28;20041;-67
2021/08/13 04:56:23;;;;;;;8.85;4.40;;;;;;;;;;5013516;28;20038;-73
2021/08/13 04:58:49;;;;;;;13.30;4.47;;;;;;;;;;5008719;28;20026;-68
2021/08/13 05:01:16;;;;;;;8.90;4.70;;;;;;;;;;5011215;28;20117;-69
2021/08/13 05:03:42;;;;;;;11.00;4.70;;;;;;;;;;5012594;28;20018;-66
2021/08/13 05:06:08;;;;;;;12.50;5.15;;;;;;;;;;5002566;28;20042;-67
2021/08/13 05:08:34;;;;;;;21.55;6.55;;;;;;;;;;5008139;28;20054;-67
2021/08/13 05:11:00;;;;;;;22.95;6.55;;;;;;;;;;5013007;28;20033;-69
2021/08/13 05:13:26;;;;;;;28.90;6.70;;;;;;;;;;5018060;28;20475;-68
2021/08/13 05:15:52;;;;;;;43.35;7.05;;;;;;;;;;5013259;28;20079;-69
2021/08/13 05:18:19;;;;;;;39.80;7.50;;;;;;;;;;5013681;28;20076;-70
2021/08/13 05:20:45;;;;;;;30.05;7.60;;;;;;;;;;5015267;28;20021;-68
2021/08/13 05:23:11;;;;;;;23.55;7.97;;;;;;;;;;5023202;28;20030;-67
2021/08/13 05:25:37;;;;;;;19.92;7.80;;;;;;;;;;5007353;28;20028;-70
2021/08/13 05:28:04;;;;;;;31.95;8.02;;;;;;;;;;5017715;28;20087;-70
2021/08/13 05:30:30;;;;;;;18.45;7.25;;;;;;;;;;5015562;28;20027;-69
2021/08/13 05:32:56;;;;;;;20.52;7.22;;;;;;;;;;5008830;28;20099;-73
2021/08/13 05:35:22;;;;;;;27.35;7.63;;;;;;;;;;5021286;28;20038;-73
2021/08/13 05:37:48;;;;;;;22.38;7.57;;;;;;;;;;5013414;28;20021;-66
2021/08/13 05:40:14;;;;;;;32.35;8.40;;;;;;;;;;5013072;28;20454;-65
2021/08/13 05:42:40;;;;;;;34.17;8.48;;;;;;;;;;5015700;28;20104;-66
2021/08/13 05:45:06;;;;;;;45.03;9.40;;;;;;;;;;5008624;28;20042;-69
2021/08/13 05:47:38;;;;;;;32.70;10.60;;;;;;;;;;5018778;28;20467;-67
2021/08/13 05:50:04;;;;;;;33.13;9.20;;;;;;;;;;5022731;28;20036;-69
2021/08/13 05:52:30;;;;;;;36.53;10.25;;;;;;;;;;5012665;28;20554;-66
2021/08/13 05:54:56;;;;;;;39.53;10.88;;;;;;;;;;5007563;28;20043;-65
2021/08/13 05:57:22;;;;;;;42.65;11.55;;;;;;;;;;5012666;28;20041;-82
2021/08/13 05:59:51;;;;;;;33.42;11.50;;;;;;;;;;5012766;28;20037;-78
2021/08/13 06:02:18;;;;;;;36.75;10.43;;;;;;;;;;4997224;28;20435;-81
2021/08/13 06:04:44;;;;;;;26.02;9.98;;;;;;;;;;4996156;28;20034;-73
2021/08/13 06:07:11;;;;;;;35.08;10.13;;;;;;;;;;4999303;28;20037;-78
2021/08/13 06:09:37;;;;;;;32.53;10.35;;;;;;;;;;5012603;28;20093;-72
2021/08/13 06:12:05;;;;;;;41.38;10.13;;;;;;;;;;5015501;28;20112;-71
2021/08/13 06:14:32;;;;;;;20.63;7.97;;;;;;;;;;5011876;28;20088;-80
2021/08/13 06:17:00;;;;;;;15.85;7.28;;;;;;;;;;4998231;28;20041;-69
2021/08/13 06:19:26;;;;;;;13.75;7.22;;;;;;;;;;4999996;28;20041;-69
2021/08/13 06:21:52;;;;;;;14.45;6.90;;;;;;;;;;5011104;28;20030;-65
2021/08/13 06:24:18;;;;;;;14.98;6.85;;;;;;;;;;5014011;28;20034;-64
2021/08/13 06:26:44;;;;;;;21.58;6.78;;;;;;;;;;5006006;28;20117;-72
2021/08/13 06:29:11;;;;;;;16.10;7.05;;;;;;;;;;5018410;28;20435;-72
2021/08/13 06:31:37;;;;;;;17.70;6.20;;;;;;;;;;5016908;28;20022;-73
2021/08/13 06:34:09;;;;;;;13.85;6.03;;;;;;;;;;5013325;28;20022;-73
2021/08/13 06:36:43;;;;;;;18.50;6.27;;;;;;;;;;5006166;28;20030;-69
2021/08/13 06:39:25;;;;;;;14.95;5.50;;;;;;;;;;4988699;28;20120;-70
2021/08/13 06:42:00;;;;;;;16.05;7.15;;;;;;;;;;4994260;28;20038;-69
2021/08/13 06:44:27;;;;;;;6.97;4.05;;;;;;;;;;4967930;28;20066;-69
2021/08/13 06:46:53;;;;;;;6.93;4.50;;;;;;;;;;4971758;28;20047;-68
2021/08/13 06:49:19;;;;;;;5.45;4.10;;;;;;;;;;4972132;28;20128;-67
2021/08/13 06:51:45;;;;;;;6.50;3.90;;;;;;;;;;4970944;28;20569;-65
2021/08/13 06:54:11;;;;;;;6.72;4.45;;;;;;;;;;4974926;28;20494;-65
2021/08/13 06:56:38;;;;;;;9.68;3.92;;;;;;;;;;4970755;28;20042;-67
2021/08/13 06:59:04;;;;;;;8.93;4.43;;;;;;;;;;4970732;28;20085;-67
2021/08/13 07:01:30;;;;;;;8.75;4.05;;;;;;;;;;4969532;28;20037;-67
2021/08/13 07:03:56;;;;;;;7.13;4.00;;;;;;;;;;4976535;28;20059;-67
2021/08/13 07:06:22;;;;;;;15.10;4.38;;;;;;;;;;4965383;28;20094;-68
2021/08/13 07:08:48;;;;;;;8.75;4.20;;;;;;;;;;4971151;28;20041;-66
2021/08/13 07:11:14;;;;;;;6.30;4.50;;;;;;;;;;4976604;28;20046;-68
2021/08/13 07:13:40;;;;;;;7.15;4.47;;;;;;;;;;4970350;28;20038;-66
2021/08/13 07:16:06;;;;;;;8.52;4.03;;;;;;;;;;5001603;28;20092;-67
2021/08/13 07:18:32;;;;;;;7.45;4.03;;;;;;;;;;5008872;28;20383;-67
2021/08/13 07:20:58;;;;;;;9.68;4.50;;;;;;;;;;5011310;28;20029;-66
2021/08/13 07:23:24;;;;;;;7.80;4.28;;;;;;;;;;5008218;28;20080;-67
2021/08/13 07:25:50;;;;;;;8.80;4.15;;;;;;;;;;5011563;28;20026;-65
2021/08/13 07:28:17;;;;;;;8.85;4.32;;;;;;;;;;5010390;28;20033;-67
2021/08/13 07:30:43;;;;;;;6.68;4.22;;;;;;;;;;4991467;28;20026;-69
2021/08/13 07:33:09;;;;;;;7.38;3.95;;;;;;;;;;5011256;28;20026;-68
2021/08/13 07:35:35;;;;;;;9.32;4.10;;;;;;;;;;5014786;28;20765;-81
2021/08/13 07:38:01;;;;;;;7.15;4.38;;;;;;;;;;4994999;28;20029;-80
2021/08/13 07:40:27;;;;;;;8.90;4.30;;;;;;;;;;5014191;28;20029;-82
2021/08/13 07:42:54;;;;;;;8.07;4.10;;;;;;;;;;4996500;28;20037;-65
2021/08/13 07:45:21;;;;;;;9.20;3.72;;;;;;;;;;5009404;28;20022;-65
2021/08/13 07:48:05;;;;;;;13.55;4.50;;;;;;;;;;5007371;28;20468;-76
2021/08/13 07:50:40;;;;;;;9.07;4.28;;;;;;;;;;4990981;28;20033;-70
2021/08/13 07:53:09;;;;;;;8.15;3.95;;;;;;;;;;5007885;28;20512;-70
2021/08/13 07:55:35;;;;;;;9.45;4.30;;;;;;;;;;5004892;28;20065;-70
2021/08/13 07:58:01;;;;;;;6.70;3.95;;;;;;;;;;5010878;28;20041;-69
2021/08/13 08:00:30;;;;;;;5.95;4.25;;;;;;;;;;5009435;28;20538;-70
2021/08/13 08:02:56;;;;;;;6.10;3.92;;;;;;;;;;4997032;28;20040;-69
2021/08/13 08:05:22;;;;;;;6.38;3.85;;;;;;;;;;5009188;28;20391;-69
2021/08/13 08:07:49;;;;;;;6.47;4.40;;;;;;;;;;5009569;28;20165;-68
2021/08/13 08:10:15;;;;;;;6.20;4.20;;;;;;;;;;4991451;28;20034;-68
2021/08/13 08:12:44;;;;;;;9.65;4.25;;;;;;;;;;5012711;28;20026;-68
2021/08/13 08:15:11;;;;;;;7.90;4.57;;;;;;;;;;5009532;28;20037;-68
2021/08/13 08:17:40;;;;;;;7.15;3.88;;;;;;;;;;4998356;28;20499;-72
2021/08/13 08:20:06;;;;;;;8.32;4.50;;;;;;;;;;5005766;28;20018;-68
2021/08/13 08:22:38;;;;;;;6.10;4.07;;;;;;;;;;5012463;28;20029;-70
2021/08/13 08:25:04;;;;;;;9.60;4.53;;;;;;;;;;5014421;28;20041;-68
2021/08/13 08:27:31;;;;;;;7.57;4.40;;;;;;;;;;5012122;28;20080;-68
2021/08/13 08:29:57;;;;;;;5.63;3.90;;;;;;;;;;5017002;28;20018;-68
2021/08/13 08:32:23;;;;;;;7.13;4.13;;;;;;;;;;5014731;28;20118;-69
2021/08/13 08:34:49;;;;;;;12.25;4.78;;;;;;;;;;5012887;28;20384;-68
2021/08/13 08:37:15;;;;;;;7.95;4.40;;;;;;;;;;5012701;28;20038;-70
2021/08/13 08:39:43;;;;;;;8.57;3.97;;;;;;;;;;5014481;28;20026;-72
2021/08/13 08:42:13;;;;;;;6.07;3.70;;;;;;;;;;4997773;28;20088;-69
2021/08/13 08:44:39;;;;;;;7.55;3.90;;;;;;;;;;5013610;28;20476;-77
2021/08/13 08:47:05;;;;;;;10.90;4.45;;;;;;;;;;5005904;28;20034;-71
2021/08/13 08:49:32;;;;;;;9.93;4.72;;;;;;;;;;5004218;28;20434;-71
2021/08/13 08:52:14;;;;;;;7.57;4.10;;;;;;;;;;4996819;28;20025;-79
2021/08/13 08:54:46;;;;;;;7.68;4.38;;;;;;;;;;5008729;28;20043;-68
2021/08/13 08:57:12;;;;;;;5.47;4.03;;;;;;;;;;5010264;28;20031;-67
2021/08/13 08:59:48;;;;;;;5.13;3.80;;;;;;;;;;5022586;28;20087;-69
2021/08/13 09:02:14;;;;;;;8.80;4.20;;;;;;;;;;5014817;28;20030;-68
2021/08/13 09:04:40;;;;;;;13.65;4.80;;;;;;;;;;4996438;28;20036;-68
2021/08/13 09:07:07;;;;;;;8.65;4.53;;;;;;;;;;5014299;28;20073;-70
2021/08/13 09:09:33;;;;;;;8.05;4.05;;;;;;;;;;5014155;28;20113;-67
2021/08/13 09:11:59;;;;;;;8.23;4.40;;;;;;;;;;5016003;28;20022;-64
2021/08/13 09:14:36;;;;;;;12.77;4.60;;;;;;;;;;5016125;28;20051;-64
2021/08/13 09:17:03;;;;;;;5.40;3.90;;;;;;;;;;5010281;28;20021;-67
2021/08/13 09:19:46;;;;;;;14.98;4.60;;;;;;;;;;5015698;28;20149;-63
2021/08/13 09:22:19;;;;;;;8.05;4.72;;;;;;;;;;5015829;28;20038;-66
2021/08/13 09:24:48;;;;;;;6.00;4.13;;;;;;;;;;5014051;28;20017;-63
2021/08/13 09:27:22;;;;;;;5.18;4.32;;;;;;;;;;5014044;28;20042;-64
2021/08/13 09:30:07;;;;;;;10.95;4.32;;;;;;;;;;5013219;28;20388;-66
2021/08/13 09:32:33;;;;;;;9.63;4.43;;;;;;;;;;5012124;28;20517;-67
2021/08/13 09:34:59;;;;;;;5.80;4.30;;;;;;;;;;5011679;28;20033;-64
2021/08/13 09:37:25;;;;;;;5.70;4.35;;;;;;;;;;5016822;28;20030;-64
2021/08/13 09:39:55;;;;;;;8.18;3.97;;;;;;;;;;5011070;28;20120;-66
2021/08/13 09:42:21;;;;;;;7.40;4.43;;;;;;;;;;5010033;28;20038;-66
2021/08/13 09:45:00;;;;;;;10.93;4.82;;;;;;;;;;5011439;28;20018;-64
2021/08/13 09:47:38;;;;;;;6.72;4.50;;;;;;;;;;4993723;28;20396;-77
2021/08/13 09:50:04;;;;;;;5.05;4.13;;;;;;;;;;5010572;28;20030;-71
2021/08/13 09:52:40;;;;;;;5.90;4.13;;;;;;;;;;4994488;28;20049;-67
2021/08/13 09:55:21;;;;;;;7.95;4.32;;;;;;;;;;5009026;28;20487;-67
2021/08/13 09:57:56;;;;;;;12.45;4.80;;;;;;;;;;5007849;28;20533;-68
2021/08/13 10:00:24;;;;;;;8.05;4.10;;;;;;;;;;5025007;28;20034;-70
2021/08/13 10:03:05;;;;;;;9.38;4.40;;;;;;;;;;5012657;28;20045;-68
2021/08/13 10:05:39;;;;;;;18.90;4.68;;;;;;;;;;5009220;28;20038;-68
2021/08/13 10:08:05;;;;;;;7.80;4.20;;;;;;;;;;5012122;28;20045;-69
2021/08/13 10:10:39;;;;;;;9.45;4.30;;;;;;;;;;4997019;28;20034;-69
2021/08/13 10:13:06;;;;;;;9.48;4.43;;;;;;;;;;5017634;28;20053;-68
2021/08/13 10:15:35;;;;;;;7.90;4.50;;;;;;;;;;5011635;28;20499;-70
2021/08/13 10:18:08;;;;;;;14.23;5.05;;;;;;;;;;5003910;28;20034;-68
2021/08/13 10:20:38;;;;;;;9.73;4.80;;;;;;;;;;5011397;28;20034;-69
2021/08/13 10:23:05;;;;;;;20.27;5.28;;;;;;;;;;4994598;28;20117;-69
2021/08/13 10:25:31;;;;;;;7.57;4.45;;;;;;;;;;5012014;28;20057;-71
2021/08/13 10:27:57;;;;;;;9.40;5.13;;;;;;;;;;5010440;28;20104;-63
2021/08/13 10:30:24;;;;;;;7.97;4.40;;;;;;;;;;5010018;28;20034;-66
2021/08/13 10:32:52;;;;;;;11.95;4.97;;;;;;;;;;5008234;28;20479;-64
2021/08/13 10:35:18;;;;;;;10.43;4.93;;;;;;;;;;5012475;28;20030;-63
2021/08/13 10:37:44;;;;;;;7.15;4.68;;;;;;;;;;5008088;28;20025;-79
2021/08/13 10:40:12;;;;;;;8.40;5.22;;;;;;;;;;5011706;28;20050;-78
2021/08/13 10:42:45;;;;;;;14.68;5.13;;;;;;;;;;5011046;28;20029;-76
2021/08/13 10:45:19;;;;;;;10.50;5.00;;;;;;;;;;5011439;28;20480;-78
2021/08/13 10:48:11;;;;;;;9.45;4.68;;;;;;;;;;5005275;28;20049;-70
2021/08/13 10:50:37;;;;;;;15.60;5.28;;;;;;;;;;5005235;28;20470;-74
2021/08/13 10:53:04;;;;;;;12.00;5.13;;;;;;;;;;4994976;28;20369;-72
2021/08/13 10:55:45;;;;;;;15.23;6.22;;;;;;;;;;5011149;28;20121;-70
2021/08/13 10:58:12;;;;;;;18.25;5.32;;;;;;;;;;5010361;28;20120;-70
2021/08/13 11:00:56;;;;;;;25.55;5.65;;;;;;;;;;5008963;28;20054;-61
2021/08/13 11:03:24;;;;;;;17.48;5.65;;;;;;;;;;5010471;28;20056;-70
2021/08/13 11:06:01;;;;;;;8.98;4.88;;;;;;;;;;4993900;28;20171;-70
2021/08/13 11:08:42;;;;;;;12.60;5.10;;;;;;;;;;5030712;28;20530;-68
2021/08/13 11:11:09;;;;;;;12.85;4.88;;;;;;;;;;5006665;28;20316;-68
2021/08/13 11:13:38;;;;;;;13.25;5.75;;;;;;;;;;5010843;28;20491;-69
2021/08/13 11:16:24;;;;;;;8.40;4.85;;;;;;;;;;5025256;28;20029;-68
2021/08/13 11:18:57;;;;;;;10.07;5.30;;;;;;;;;;5007645;28;20087;-70
2021/08/13 11:21:35;;;;;;;13.13;5.10;;;;;;;;;;5010981;28;20033;-71
2021/08/13 11:24:03;;;;;;;11.88;5.28;;;;;;;;;;5004118;28;20084;-64
2021/08/13 11:26:51;;;;;;;8.63;5.07;;;;;;;;;;5008657;28;20099;-65
2021/08/13 11:31:56;;;;;;;9.40;4.95;;;;;;;;;;5009212;28;20049;-64
2021/08/13 11:34:42;;;;;;;14.88;6.30;;;;;;;;;;5012167;28;20053;-64
2021/08/13 11:37:08;;;;;;;9.00;5.03;;;;;;;;;;5009730;28;20108;-65
2021/08/13 11:39:35;;;;;;;10.35;5.40;;;;;;;;;;5011894;28;20113;-67
2021/08/13 11:42:08;;;;;;;9.15;4.78;;;;;;;;;;5011405;28;20514;-64
2021/08/13 11:44:35;;;;;;;10.35;5.00;;;;;;;;;;5014545;28;20085;-66
2021/08/13 11:47:02;;;;;;;11.80;5.43;;;;;;;;;;5016963;28;20052;-65
2021/08/13 11:49:28;;;;;;;12.15;5.70;;;;;;;;;;5015946;28;21224;-65
2021/08/13 11:51:54;;;;;;;13.40;4.88;;;;;;;;;;5013900;28;20032;-67
2021/08/13 11:54:25;;;;;;;26.85;6.15;;;;;;;;;;5015907;28;20038;-73
2021/08/13 11:56:51;;;;;;;10.48;5.18;;;;;;;;;;5016679;28;20057;-73
2021/08/13 11:59:17;;;;;;;10.48;5.68;;;;;;;;;;5016746;28;20080;-72
2021/08/13 12:02:01;;;;;;;10.73;5.18;;;;;;;;;;5021248;28;20101;-71
2021/08/13 12:04:27;;;;;;;10.02;5.43;;;;;;;;;;5010963;28;20076;-74
2021/08/13 12:07:06;;;;;;;11.95;5.03;;;;;;;;;;4999803;28;20057;-73
2021/08/13 12:09:38;;;;;;;9.05;4.72;;;;;;;;;;5017057;28;20102;-71
2021/08/13 12:12:05;;;;;;;9.37;5.37;;;;;;;;;;5012438;28;20054;-78
2021/08/13 12:14:31;;;;;;;10.48;5.18;;;;;;;;;;5022494;28;20033;-67
2021/08/13 12:16:58;;;;;;;7.88;4.70;;;;;;;;;;5010230;28;20113;-76
2021/08/13 12:19:24;;;;;;;16.02;5.63;;;;;;;;;;5014662;28;20458;-72
2021/08/13 12:21:53;;;;;;;17.85;5.88;;;;;;;;;;5023823;28;20030;-74
2021/08/13 12:24:29;;;;;;;9.52;4.53;;;;;;;;;;5013096;28;20049;-79
2021/08/13 12:26:56;;;;;;;10.18;5.13;;;;;;;;;;4998706;28;20044;-70
2021/08/13 12:29:29;;;;;;;7.20;5.07;;;;;;;;;;5014007;28;20038;-66
2021/08/13 12:31:57;;;;;;;7.88;5.30;;;;;;;;;;5016789;28;20022;-63
2021/08/13 12:34:25;;;;;;;7.32;5.20;;;;;;;;;;5014875;28;20467;-67
2021/08/13 12:37:09;;;;;;;9.85;5.00;;;;;;;;;;5016246;28;20118;-68
2021/08/13 12:39:38;;;;;;;10.07;5.20;;;;;;;;;;5017057;28;20084;-67
2021/08/13 12:42:05;;;;;;;10.88;4.88;;;;;;;;;;5016156;28;20384;-66
2021/08/13 12:44:32;;;;;;;10.85;5.03;;;;;;;;;;5018107;28;20026;-67
2021/08/13 12:46:59;;;;;;;9.40;4.95;;;;;;;;;;5016809;28;20048;-64
2021/08/13 12:49:25;;;;;;;8.65;5.00;;;;;;;;;;5018183;28;20029;-65
2021/08/13 12:52:11;;;;;;;11.18;5.30;;;;;;;;;;5014843;28;20037;-64
2021/08/13 12:54:38;;;;;;;9.93;5.22;;;;;;;;;;5017327;28;20107;-66
2021/08/13 12:57:10;;;;;;;8.68;4.90;;;;;;;;;;5012176;28;20022;-65
2021/08/13 12:59:37;;;;;;;16.05;4.90;;;;;;;;;;5016732;28;20470;-61
2021/08/13 13:02:04;;;;;;;7.10;5.22;;;;;;;;;;5013623;28;20115;-61
2021/08/13 13:04:39;;;;;;;11.30;4.70;;;;;;;;;;5014390;28;20487;-66
2021/08/13 13:07:06;;;;;;;7.40;4.70;;;;;;;;;;5014117;28;20391;-63
2021/08/13 13:09:33;;;;;;;11.27;5.40;;;;;;;;;;5012923;28;20030;-64
2021/08/13 13:12:13;;;;;;;10.07;5.10;;;;;;;;;;5013069;28;20065;-67
2021/08/13 13:14:39;;;;;;;8.65;4.60;;;;;;;;;;5009525;28;20022;-68
2021/08/13 13:17:09;;;;;;;7.55;5.03;;;;;;;;;;4995812;28;20519;-67
2021/08/13 13:19:36;;;;;;;7.18;4.75;;;;;;;;;;5013242;28;20099;-75
2021/08/13 13:22:19;;;;;;;10.57;5.38;;;;;;;;;;5013516;28;20033;-66
2021/08/13 13:24:46;;;;;;;5.97;4.68;;;;;;;;;;5011504;28;20485;-69
2021/08/13 13:27:12;;;;;;;7.72;4.70;;;;;;;;;;5010480;28;20034;-65
2021/08/13 13:29:42;;;;;;;6.88;4.82;;;;;;;;;;5012567;28;20021;-68
2021/08/13 13:32:26;;;;;;;7.10;4.57;;;;;;;;;;4994163;28;20846;-67
2021/08/13 13:34:59;;;;;;;10.30;5.45;;;;;;;;;;5014884;28;20022;-66
2021/08/13 13:37:26;;;;;;;11.00;4.70;;;;;;;;;;5014457;28;20029;-66
2021/08/13 13:39:53;;;;;;;9.63;5.40;;;;;;;;;;5013126;28;20071;-66
2021/08/13 13:42:26;;;;;;;22.02;5.22;;;;;;;;;;5014116;28;20030;-69
2021/08/13 13:44:53;;;;;;;8.35;4.78;;;;;;;;;;4996195;28;20026;-64
2021/08/13 13:47:19;;;;;;;6.93;4.88;;;;;;;;;;5014442;28;20037;-72
2021/08/13 13:49:45;;;;;;;10.38;5.20;;;;;;;;;;5020768;28;20079;-69
2021/08/13 13:52:11;;;;;;;11.70;5.10;;;;;;;;;;4996847;28;20026;-63
2021/08/13 13:54:37;;;;;;;8.63;5.05;;;;;;;;;;5013538;28;20048;-64
2021/08/13 13:57:03;;;;;;;13.70;5.38;;;;;;;;;;5013324;28;20115;-70
2021/08/13 13:59:29;;;;;;;10.20;5.05;;;;;;;;;;5008929;28;20480;-66
2021/08/13 14:01:55;;;;;;;9.00;5.15;;;;;;;;;;5010246;28;20388;-62
2021/08/13 14:04:21;;;;;;;8.90;5.13;;;;;;;;;;5009828;28;20033;-67
2021/08/13 14:06:47;;;;;;;12.15;4.90;;;;;;;;;;5012162;28;20038;-66
2021/08/13 14:09:13;;;;;;;24.15;5.45;;;;;;;;;;5014402;28;20021;-63
2021/08/13 14:11:39;;;;;;;9.85;5.32;;;;;;;;;;5011742;28;20105;-64
2021/08/13 14:14:05;;;;;;;8.73;5.40;;;;;;;;;;5012579;28;20026;-67
2021/08/13 14:16:31;;;;;;;18.55;5.70;;;;;;;;;;5005447;28;20432;-63
2021/08/13 14:18:57;;;;;;;10.90;5.15;;;;;;;;;;5012467;28;20022;-66
2021/08/13 14:21:24;;;;;;;30.38;6.05;;;;;;;;;;5010885;28;20048;-61
2021/08/13 14:23:50;;;;;;;8.82;4.93;;;;;;;;;;5007994;28;20021;-66
2021/08/13 14:26:16;;;;;;;9.85;5.00;;;;;;;;;;5012094;28;20073;-65
2021/08/13 14:28:42;;;;;;;7.97;4.95;;;;;;;;;;5010427;28;20170;-65
2021/08/13 14:31:08;;;;;;;8.25;5.07;;;;;;;;;;5008188;28;20526;-67
2021/08/13 14:33:34;;;;;;;10.32;4.80;;;;;;;;;;5009562;28;20100;-68
2021/08/13 14:36:00;;;;;;;8.63;5.35;;;;;;;;;;5011981;28;20491;-66
2021/08/13 14:38:26;;;;;;;9.05;5.25;;;;;;;;;;5007996;28;20472;-64
2021/08/13 14:40:52;;;;;;;6.65;5.13;;;;;;;;;;5011373;28;20025;-61
2021/08/13 14:43:18;;;;;;;8.00;5.13;;;;;;;;;;5010894;28;20049;-66
2021/08/13 14:45:44;;;;;;;7.68;4.88;;;;;;;;;;5013649;28;20034;-62
2021/08/13 14:48:10;;;;;;;7.72;5.45;;;;;;;;;;5012540;28;20022;-67
2021/08/13 14:50:36;;;;;;;7.35;4.50;;;;;;;;;;5010024;28;20029;-61
2021/08/13 14:53:03;;;;;;;8.10;5.15;;;;;;;;;;5011784;28;20399;-65
2021/08/13 14:55:29;;;;;;;14.32;5.13;;;;;;;;;;5011138;28;20515;-67
2021/08/13 14:57:55;;;;;;;6.18;5.00;;;;;;;;;;5014903;28;20018;-65